createdAt,value
2022-12-18T00:01:28.816Z,14.33
2022-12-18T00:06:15.051Z,15.63
2022-12-18T00:11:15.746Z,14.37
2022-12-18T00:16:25.860Z,12.90
2022-12-18T00:21:13.361Z,13.93
2022-12-18T00:25:57.467Z,14.33
2022-12-18T00:30:46.077Z,11.97
2022-12-18T00:35:34.785Z,11.73
2022-12-18T00:40:21.986Z,11.50
2022-12-18T00:45:12.941Z,11.33
2022-12-18T00:49:58.666Z,12.33
2022-12-18T00:54:47.163Z,12.13
2022-12-18T00:59:34.033Z,11.37
2022-12-18T01:04:26.602Z,12.40
2022-12-18T01:09:11.941Z,11.27
2022-12-18T01:13:59.010Z,10.43
2022-12-18T01:18:50.054Z,10.33
2022-12-18T01:23:33.976Z,11.03
2022-12-18T01:28:22.480Z,11.87
2022-12-18T01:33:10.842Z,11.23
2022-12-18T01:37:58.779Z,10.73
2022-12-18T01:43:06.987Z,10.67
2022-12-18T01:48:08.778Z,9.90
2022-12-18T01:52:57.878Z,10.03
2022-12-18T01:58:02.321Z,11.63
2022-12-18T02:02:47.993Z,9.27
2022-12-18T02:07:49.717Z,9.47
2022-12-18T02:12:54.062Z,8.67
2022-12-18T02:17:55.841Z,8.53
2022-12-18T02:28:37.264Z,8.93
2022-12-18T02:33:26.649Z,7.83
2022-12-18T02:38:17.399Z,8.23
2022-12-18T02:43:21.376Z,8.70
2022-12-18T02:48:07.265Z,8.63
2022-12-18T02:53:10.074Z,7.37
2022-12-18T02:58:11.718Z,7.50
2022-12-18T03:03:07.758Z,8.17
2022-12-18T03:08:34.093Z,8.20
2022-12-18T03:14:19.087Z,7.63
2022-12-18T03:19:22.924Z,7.23
2022-12-18T03:24:41.292Z,6.33
2022-12-18T03:29:30.836Z,6.00
2022-12-18T03:34:44.810Z,6.40
2022-12-18T03:39:35.142Z,6.17
2022-12-18T03:44:55.711Z,7.20
2022-12-18T03:50:13.843Z,9.27
2022-12-18T04:00:22.834Z,8.43
2022-12-18T04:05:27.501Z,7.50
2022-12-18T04:10:16.258Z,6.50
2022-12-18T04:15:00.535Z,5.70
2022-12-18T04:19:52.632Z,6.60
2022-12-18T04:24:43.389Z,6.53
2022-12-18T04:29:42.745Z,6.87
2022-12-18T04:34:31.225Z,6.13
2022-12-18T04:39:18.796Z,6.10
2022-12-18T04:44:06.622Z,5.60
2022-12-18T04:48:54.187Z,5.17
2022-12-18T04:53:41.915Z,5.77
2022-12-18T04:58:30.551Z,5.67
2022-12-18T05:03:18.304Z,5.20
2022-12-18T05:08:06.958Z,6.50
2022-12-18T05:13:08.229Z,5.97
2022-12-18T05:18:18.104Z,5.30
2022-12-18T05:23:02.230Z,6.20
2022-12-18T05:27:49.365Z,5.77
2022-12-18T05:32:37.014Z,5.00
2022-12-18T05:37:26.838Z,6.37
2022-12-18T05:42:14.008Z,6.73
2022-12-18T05:47:22.806Z,5.97
2022-12-18T05:52:06.909Z,6.63
2022-12-18T05:56:55.025Z,8.53
2022-12-18T06:01:42.339Z,6.77
2022-12-18T06:06:30.260Z,7.90
2022-12-18T06:11:20.218Z,7.10
2022-12-18T06:16:09.403Z,6.57
2022-12-18T06:20:58.345Z,7.17
2022-12-18T06:25:42.321Z,6.43
2022-12-18T06:30:29.319Z,6.53
2022-12-18T06:35:18.927Z,7.23
2022-12-18T06:40:08.700Z,6.83
2022-12-18T06:44:52.744Z,6.53
2022-12-18T06:50:01.738Z,7.50
2022-12-18T06:54:47.697Z,7.40
2022-12-18T06:59:33.169Z,6.77
2022-12-18T07:04:22.124Z,8.30
2022-12-18T07:09:10.365Z,8.53
2022-12-18T07:13:56.545Z,8.77
2022-12-18T07:18:47.005Z,7.87
2022-12-18T07:23:35.203Z,9.30
2022-12-18T07:28:20.529Z,9.60
2022-12-18T07:33:10.439Z,8.57
2022-12-18T07:37:59.551Z,9.03
2022-12-18T07:42:46.316Z,8.53
2022-12-18T07:47:36.946Z,9.10
2022-12-18T07:52:25.718Z,8.63
2022-12-18T07:57:33.709Z,9.03
2022-12-18T08:02:47.063Z,8.13
2022-12-18T08:07:33.417Z,8.97
2022-12-18T08:12:22.798Z,9.13
2022-12-18T08:17:08.439Z,10.00
2022-12-18T08:22:01.498Z,9.97
2022-12-18T08:27:00.827Z,12.40
2022-12-18T08:31:51.131Z,10.57
2022-12-18T08:36:36.370Z,10.93
2022-12-18T08:41:25.739Z,9.40
2022-12-18T08:46:19.875Z,11.90
2022-12-18T08:51:34.684Z,13.60
2022-12-18T08:56:20.389Z,10.70
2022-12-18T09:01:12.247Z,9.00
2022-12-18T09:05:59.451Z,8.83
2022-12-18T09:10:47.399Z,10.27
2022-12-18T09:15:34.951Z,12.07
2022-12-18T09:20:20.928Z,10.60
2022-12-18T09:25:10.571Z,11.30
2022-12-18T09:29:58.631Z,9.80
2022-12-18T09:34:47.321Z,10.87
2022-12-18T09:39:38.836Z,9.10
2022-12-18T09:44:52.989Z,7.70
2022-12-18T09:49:57.655Z,8.13
2022-12-18T09:55:38.122Z,10.33
2022-12-18T10:00:41.871Z,10.57
2022-12-18T10:05:47.768Z,9.67
2022-12-18T10:17:40.972Z,11.20
2022-12-18T10:22:59.510Z,13.23
2022-12-18T10:27:52.731Z,13.07
2022-12-18T10:32:42.522Z,12.73
2022-12-18T10:37:43.601Z,12.70
2022-12-18T10:42:32.236Z,13.63
2022-12-18T10:47:47.682Z,11.93
2022-12-18T10:53:47.753Z,12.07
2022-12-18T11:07:17.148Z,13.73
2022-12-18T11:19:35.502Z,12.70
2022-12-18T11:25:32.333Z,12.97
2022-12-18T11:38:32.925Z,15.53
2022-12-18T11:43:21.382Z,15.90
2022-12-18T11:48:10.498Z,15.27
2022-12-18T11:52:59.286Z,15.30
2022-12-18T11:57:58.259Z,15.97
2022-12-18T12:03:06.737Z,17.53
2022-12-18T12:08:08.163Z,25.73
2022-12-18T12:13:11.102Z,15.63
2022-12-18T12:18:18.676Z,15.87
2022-12-18T12:23:17.715Z,15.30
2022-12-18T12:28:21.790Z,13.87
2022-12-18T12:33:23.582Z,15.00
2022-12-18T12:38:24.900Z,21.67
2022-12-18T12:43:28.176Z,15.27
2022-12-18T12:48:34.355Z,19.17
2022-12-18T12:53:30.917Z,18.43
2022-12-18T13:03:52.233Z,15.40
2022-12-18T13:09:02.762Z,14.60
2022-12-18T13:14:49.672Z,15.00
2022-12-18T13:19:48.774Z,15.17
2022-12-18T13:24:46.972Z,14.43
2022-12-18T13:29:53.237Z,14.50
2022-12-18T13:34:45.463Z,15.03
2022-12-18T13:39:41.914Z,14.73
2022-12-18T13:44:40.620Z,14.00
2022-12-18T13:49:40.989Z,14.90
2022-12-18T13:54:33.384Z,14.67
2022-12-18T13:59:25.155Z,13.83
2022-12-18T14:04:47.264Z,13.70
2022-12-18T14:09:37.289Z,13.60
2022-12-18T14:14:25.826Z,14.80
2022-12-18T14:19:20.476Z,14.03
2022-12-18T14:24:15.377Z,13.93
2022-12-18T14:29:21.655Z,14.93
2022-12-18T14:34:18.159Z,13.40
2022-12-18T14:39:02.299Z,11.47
2022-12-18T14:43:51.479Z,21.57
2022-12-18T14:48:55.170Z,13.33
2022-12-18T14:53:43.631Z,12.77
2022-12-18T14:58:29.631Z,14.37
2022-12-18T15:03:22.288Z,11.97
2022-12-18T15:08:39.743Z,13.60
2022-12-18T15:13:25.888Z,13.50
2022-12-18T15:18:17.534Z,12.67
2022-12-18T15:23:06.895Z,13.37
2022-12-18T15:27:52.853Z,12.23
2022-12-18T15:32:39.161Z,13.73
2022-12-18T15:37:33.465Z,13.10
2022-12-18T15:42:34.752Z,13.17
2022-12-18T15:47:20.105Z,14.93
2022-12-18T15:52:05.579Z,13.67
2022-12-18T15:57:07.081Z,15.17
2022-12-18T16:01:54.669Z,13.13
2022-12-18T16:07:13.307Z,14.43
2022-12-18T16:11:49.269Z,13.73
2022-12-18T16:16:32.924Z,14.13
2022-12-18T16:21:17.181Z,13.33
2022-12-18T16:26:02.702Z,14.97
2022-12-18T16:30:50.576Z,14.70
2022-12-18T16:35:34.631Z,14.10
2022-12-18T16:40:20.583Z,14.43
2022-12-18T16:45:09.075Z,14.03
2022-12-18T16:49:53.339Z,15.00
2022-12-18T16:54:44.758Z,12.87
2022-12-18T16:59:29.449Z,14.00
2022-12-18T17:04:16.283Z,12.97
2022-12-18T17:09:01.780Z,14.40
2022-12-18T17:13:46.805Z,12.50
2022-12-18T17:18:30.584Z,12.20
2022-12-18T17:23:16.167Z,12.33
2022-12-18T17:28:02.695Z,13.17
2022-12-18T17:32:46.471Z,14.73
2022-12-18T17:37:31.225Z,13.07
2022-12-18T17:42:17.228Z,14.03
2022-12-18T17:47:00.945Z,14.53
2022-12-18T17:51:44.934Z,12.97
2022-12-18T17:56:29.077Z,12.87
2022-12-18T18:01:16.351Z,13.07
2022-12-18T18:11:20.303Z,13.67
2022-12-18T18:16:10.544Z,14.63
2022-12-18T18:20:58.265Z,13.27
2022-12-18T18:25:42.912Z,13.90
2022-12-18T18:30:27.838Z,13.03
2022-12-18T18:35:24.564Z,13.13
2022-12-18T18:40:16.518Z,13.60
2022-12-18T18:45:03.989Z,15.03
2022-12-18T18:49:47.984Z,13.20
2022-12-18T18:54:35.964Z,11.83
2022-12-18T18:59:27.498Z,14.47
2022-12-18T19:04:16.353Z,14.43
2022-12-18T19:09:04.870Z,12.97
2022-12-18T19:13:50.013Z,13.17
2022-12-18T19:18:41.341Z,11.93
2022-12-18T19:23:26.810Z,12.17
2022-12-18T19:28:21.955Z,11.33
2022-12-18T19:33:34.565Z,10.47
2022-12-18T19:38:12.677Z,10.73
2022-12-18T19:42:57.358Z,10.33
2022-12-18T19:47:44.985Z,10.90
2022-12-18T19:52:29.242Z,11.83
2022-12-18T19:57:14.947Z,9.93
2022-12-18T20:01:58.960Z,11.03
2022-12-18T20:06:51.162Z,10.57
2022-12-18T20:11:41.460Z,11.03
2022-12-18T20:16:32.751Z,12.07
2022-12-18T20:21:18.937Z,11.40
2022-12-18T20:26:05.750Z,11.23
2022-12-18T20:30:55.565Z,11.50
2022-12-18T20:35:41.248Z,12.43
2022-12-18T20:40:25.897Z,12.13
2022-12-18T20:45:18.698Z,11.70
2022-12-18T20:50:02.470Z,10.70
2022-12-18T20:54:48.732Z,10.67
2022-12-18T20:59:32.244Z,12.20
2022-12-18T21:04:19.358Z,11.83
2022-12-18T21:09:04.258Z,10.93
2022-12-18T21:13:50.014Z,10.13
2022-12-18T21:18:35.910Z,10.97
2022-12-18T21:23:20.140Z,11.07
2022-12-18T21:28:04.766Z,11.70
2022-12-18T21:32:52.946Z,11.03
2022-12-18T21:37:38.785Z,10.53
2022-12-18T21:42:47.314Z,12.33
2022-12-18T21:47:31.558Z,12.50
2022-12-18T21:52:32.571Z,13.10
2022-12-18T21:57:18.709Z,12.93
2022-12-18T22:02:06.407Z,12.20
2022-12-18T22:06:51.908Z,11.77
2022-12-18T22:11:40.692Z,11.43
2022-12-18T22:16:33.591Z,13.10
2022-12-18T22:21:31.525Z,12.20
2022-12-18T22:26:15.639Z,11.77
2022-12-18T22:31:01.747Z,13.30
2022-12-18T22:35:46.250Z,12.67
2022-12-18T22:40:31.418Z,13.03
2022-12-18T22:45:15.613Z,13.87
2022-12-18T22:50:01.286Z,13.43
2022-12-18T22:54:49.449Z,13.17
2022-12-18T22:59:33.626Z,13.53
2022-12-18T23:04:18.003Z,13.70
2022-12-18T23:09:03.344Z,13.53
2022-12-18T23:13:48.773Z,12.80
2022-12-18T23:18:32.734Z,13.50
2022-12-18T23:23:19.503Z,13.37
2022-12-18T23:28:05.480Z,14.00
2022-12-18T23:32:49.234Z,13.60
2022-12-18T23:37:58.600Z,15.00
2022-12-18T23:42:40.620Z,16.37
2022-12-18T23:47:30.795Z,14.27
2022-12-18T23:52:19.153Z,16.17
2022-12-18T23:57:10.613Z,15.80
